Timeline UpdatesTrip UpdatesNews PostsPvt PostsTravel TipsAdmin PostsConv PostsFollowed PostsChat RequestsBlog PostsPNR Posts

Disclaimer
Search
 
 
Thu Apr 17, 2014 06:22:02 ISTHomeTrainsΣChainsAtlasPNRForumGalleryNewsFAQTripsMembersLoginFeedback
No Recent News for this Train
Other Trains in the News **new
Latest...
Will depart on 28-05-12 from Ajmer at 10-30 hrs to arrive at Agra Fort on 28-05-12 at 17-35 Hrs.
Fri May 18, 2012 (06:25PM)
⇐ Return Journey: Train# 09612

09611/Ajmer - Agra Fort Urs Special

TRAIN IS CANCELLED
Change Departure Station:
Change Arrival Station:
Post a Train Travel TipPost a Train Travel Tip **new
Post a Comment/Question/Picture/VideoPost a Comment/Question/Picture/Video
Pantry/Catering
???
RSA - Rake Sharing
Rake/Coach Composition
1 AC-3T, 12 Sleeper, 8 GS. Total : 23 Coaches.
Loco
News    PNR    Forum    Time-Table    Availability    Fare Chart    Map    Arr/Dep History    Trips    Gallery    ΣChains    X/O    Timeline    
Travel Time: 7h 5m    7 halts    Distance: 375 km    Avg Speed: 52 km/hr
Type: Mail/Express
Zone: NWR/North Western
Departs @ 10:30
Platform# ???
 M     
Ajmer Junction/AII 
Arrives @ 17:35
Platform# ???
 M     
Agra Fort/AF 

7 halts. 57 intermediate Stations between Ajmer Junction and Agra Fort

Hide intermediate Stations  

#CodeStation NameX/OArrivesAvgDepartsAvgHaltPFDay#KmSpeedElevZoneAddress
1AII»Ajmer Junction (5)»  -10:30---10.056464mNWRPin: 305001, Rajasthan
1.1MDMadar Junction (6)  10:37-10:37-  16.9 56490mNWRAjmer, Rajasthan
1.2LRLadpura (2)  10:45-10:45-  113.6 56468mNWRAjmer, Rajasthan
1.3GEKGegal Akhri  10:51-10:51-  119.3 56459mNWRKishangarh, Rajasthan
2KSGKishangarh (3)  11:01-11:03-2m--128.878443mNWRKishangarh, Rajasthan
2.1MNDVMandawariya  11:07-11:07-  134.5 78445mNWRHarmara Rd, Rajasthan
2.2TLTiloniya  11:11-11:11-  139.5 78428mNWRTiloniya, Rajasthan
2.3GLTAGahlota  11:14-11:14-  143.8 78417mNWRKishangarh, Rajasthan
2.4SALISali  11:20-11:20-  150.8 78395mNWRAjmer, Rajasthan
2.5SKSakhun  11:25-11:25-  157.7 78392mNWRAjmer, Rajasthan
2.6DTRADantra  11:30-11:30-  164.5 78366mNWRMDR 85, Rajasthan
2.7NRINaraina  11:34-11:34-  169.7 78377mNWRAjmer, Rajasthan
2.8BNWSBhanwsa  11:38-11:38-  173.8 78382mNWRState Highway 2, Rajasthan
3FLPhulera Junction (5)  11:42-11:44-2m--179.665386mNWRPhulera, Rajasthan
3.1HDAHirnoda  11:52-11:52-  188.3 65400mNWRJaipur, Rajasthan
3.2DHNDDhinda  11:56-11:56-  192.3 65386mNWRMDR 59, Rajasthan
3.3JOBAsalpur Jobner  12:01-12:01-  197.9 65379mNWRJaipur, Rajasthan
3.4BOBSBobas  12:08-12:08-  1105.4 65396mNWRJaipur, Rajasthan
3.5SHNXSheo Singh Pura  12:14-12:14-  1112.3 65411mNWRJaipur, Rajasthan
3.6DNKDhanakya  12:18-12:18-  1116.1 65418mNWRJaipur, Rajasthan
3.7BDYKBindayaka  12:22-12:22-  1120.7 65411mNWRJaipur, Rajasthan
3.8KKUKanakpura  12:27-12:27-  1125.8 65429mNWRJaipur, Rajasthan
4JPJaipur Junction (7)  12:35-12:45-10m--1134.767434mNWRJaipur, Rajasthan
4.1GADJJaipur Gandhinagar (2)  12:50-12:50-  1140.1 67426mNWRJaipur, Rajasthan
4.2GTJTGetor Jagatpura (2)  12:55-12:55-  1145.6 67389mNWRJaipur, Rajasthan
4.3KWPKhatipura (2)  13:00-13:00-  1151.5 67364mNWRGandhinagar, Rajasthan
4.4KUTKanauta (2)  13:06-13:06-  1158.1 67350mNWRJaipur, Rajasthan
4.5BAIBassi (3)  13:14-13:14-  1167.2 67352mNWRJaipur, Rajasthan
4.6JHIRJhir (2)  13:20-13:20-  1174.1 67377mNWRKanauta, Rajasthan
4.7BSKOBanskho (2)  13:23-13:23-  1176.7 67362mNWRJaipur, Rajasthan
4.8JWJatwara (2)  13:29-13:29-  1184.1 67329mNWRDausa, Rajasthan
4.9BNDNBhandana (2)  13:34-13:34-  1188.9 67329mNWRBanskho, Rajasthan
5DODausa (2)  13:40-13:42-2m--1196.152333mNWRDausa, Rajasthan
5.1BAKBhan Kari (2)  13:54-13:54-  1206.9 52301mNWRDausa, Rajasthan
5.2KVGMKolvagram (2)  14:02-14:02-  1213.5 52294mNWRBandikui, Rajasthan
5.3ARNAArnia (2)  14:08-14:08-  1218.9 52288mNWRBandikui, Rajasthan
6BKIBandikui Junction (6)  14:15-14:17-2m--1225.076283mNWRBandikui, Rajasthan
6.1SHGNShri Ghasinagar (1)  14:29-14:29-  1240.2 76263mNCRBandikui, Rajasthan
6.2BWBiwai (1)  14:32-14:32-  1244.3 76256mNCRBandikui, Rajasthan
6.3BJRABhajera (1)  14:35-14:35-  1248.5 76253mNCRMandawar, Rajasthan
6.4KPOKaranpura (1)  14:36-14:36-  1249.3 76252mNCRBandikui, Rajasthan
6.5BUDABhuda (1)  14:38-14:38-  1252.0 76253mNCRKheril, Rajasthan
6.6MURDMandawar Mahwa Road (1)  14:42-14:42-  1256.9 76242mNCRMandawar, Rajasthan
6.7GOSGhosrana (1)  14:48-14:48-  1264.2 76230mNCRKheril, Rajasthan
6.8DTFDantla (1)  14:53-14:53-  1270.5 76224mNCRDantia, Rajasthan
6.9KLKherli (1)  14:58-14:58-  1277.0 76219mNCRKherli, Rajasthan
6.10TBLTarchhera Baraoliran (1)  15:04-15:04-  1285.0 76210mNCRTalchherra, Rajasthan
6.11NBINadbai (1)  15:11-15:11-  1293.3 76203mNCRNadbai, Rajasthan
6.12PPEAPaprera (1)  15:19-15:19-  1303.5 76187mNCRNadbai, Rajasthan
6.13HKHelak (1)  15:24-15:24-  1310.0 76183mNCRBharatpur, Rajasthan
7BTEBharatpur Junction (5)  15:33-15:35-2m--1321.859174mWCRBharatpur, Rajasthan
7.1NHBNoh Bachhamdi (1)  15:42-15:42-  1328.5 59174mNCRBharatpur, Rajasthan
7.2IKIkran (1)  15:48-15:48-  1334.1 59171mNCRBharatpur, Rajasthan
7.3CIKChiksana (1)  15:53-15:53-  1339.4 59177mNCRBharatpur, Rajasthan
8AHAchhnera Junction (3)  16:03-16:05-2m--1349.117170mNCRAgra District, Uttar Pradesh
8.1RAIRaibha (1)  16:21-16:21-  1353.8 17171mNCRBichpuri, Uttar Pradesh
8.2BCPBichpuri (1)  16:59-16:59-  1364.6 17176mNCRAgra District, Uttar Pradesh
8.3IDHIdgah Agra Junction (3)  17:27-17:27-  1373.0 17168mNCRAgra, Uttar Pradesh
9AF•Agra Fort (3)•  17:35----1375.2-170mNCRRakabganj, Uttar Pradesh
Scroll to Top
Scroll to Bottom